Covington, Virginia
Current Conditions -  °F | °C
As of 12:35 AM on Tuesday 27 Jan 2015 (Local Time) from KHSP Reporting Station
Light Snow Light Snow  
Wind Chill:   Ceiling: 200
Heat Index: 19°   Visibility: 0.25mi
Dew Point: 19°   Wind: 15mph
Humidity: 100%   Direction: 290°WNW
Pressure: 29.58"   Gusts: 20mph
Location:  37.79°N, 79.99°W
Report Text: KHSP 270535Z AUTO 29013G17KT 1/4SM -SN OVC002 M07/M07 A2958 RMK AO2 T10701070
Loading
Personal Weather Stations






























Interactive Weather Map New forecast layout! Learn more

10-Day Weather Forecast

Advertisements
Track Severe Weather on mobile